Glenfield, North Dakota
Current Conditions -  °F | °C
As of 12:56 PM on Sunday 23 Nov 2014 (Local Time) from KJMS Reporting Station
Overcast Overcast  
Wind Chill: 17°   Ceiling: 2500
Heat Index: 30°   Visibility: 10mi
Dew Point: 19°   Wind: 22mph
Humidity: 64%   Direction: 300°WNW
Pressure: 29.49"   Gusts: 28mph
Location:  47.45°N, 98.57°W
Report Text: KJMS 231856Z AUTO 30019G24KT 10SM BKN025 OVC034 M01/M07 A2949 RMK AO2 PK WND 28033/1807 SLP005 T10111072
Loading
Personal Weather Stations






























Interactive Weather Map New forecast layout! Learn more

10-Day Weather Forecast

Advertisements
Track Severe Weather on mobile